sensor_id;sensor_type;location;lat;lon;timestamp;P1;durP1;ratioP1;P2;durP2;ratioP2
5831;SDS011;50943;51.448;7.646;2023-05-27T00:01:14;24.00;;;4.73;;
5831;SDS011;50943;51.448;7.646;2023-05-27T00:03:43;16.63;;;4.63;;
5831;SDS011;50943;51.448;7.646;2023-05-27T00:06:09;22.77;;;5.53;;
5831;SDS011;50943;51.448;7.646;2023-05-27T00:08:37;16.23;;;4.57;;
5831;SDS011;50943;51.448;7.646;2023-05-27T00:11:04;17.20;;;4.17;;
5831;SDS011;50943;51.448;7.646;2023-05-27T00:13:30;18.40;;;4.00;;
5831;SDS011;50943;51.448;7.646;2023-05-27T00:15:57;15.83;;;4.97;;
5831;SDS011;50943;51.448;7.646;2023-05-27T00:18:23;23.70;;;5.00;;
5831;SDS011;50943;51.448;7.646;2023-05-27T00:20:50;16.30;;;4.70;;
5831;SDS011;50943;51.448;7.646;2023-05-27T00:23:16;20.63;;;4.93;;
5831;SDS011;50943;51.448;7.646;2023-05-27T00:25:44;18.53;;;5.40;;
5831;SDS011;50943;51.448;7.646;2023-05-27T00:28:12;20.53;;;5.07;;
5831;SDS011;50943;51.448;7.646;2023-05-27T00:30:38;19.57;;;4.63;;
5831;SDS011;50943;51.448;7.646;2023-05-27T00:33:05;14.73;;;3.83;;
5831;SDS011;50943;51.448;7.646;2023-05-27T00:35:31;16.10;;;4.47;;
5831;SDS011;50943;51.448;7.646;2023-05-27T00:37:58;28.37;;;5.00;;
5831;SDS011;50943;51.448;7.646;2023-05-27T00:40:26;23.33;;;4.53;;
5831;SDS011;50943;51.448;7.646;2023-05-27T00:42:56;11.37;;;4.27;;
5831;SDS011;50943;51.448;7.646;2023-05-27T00:45:22;13.57;;;4.40;;
5831;SDS011;50943;51.448;7.646;2023-05-27T00:47:49;15.50;;;5.40;;
5831;SDS011;50943;51.448;7.646;2023-05-27T00:50:17;17.40;;;5.33;;
5831;SDS011;50943;51.448;7.646;2023-05-27T00:52:43;13.30;;;4.37;;
5831;SDS011;50943;51.448;7.646;2023-05-27T00:55:10;18.57;;;4.40;;
5831;SDS011;50943;51.448;7.646;2023-05-27T00:57:37;16.87;;;4.67;;
5831;SDS011;50943;51.448;7.646;2023-05-27T01:00:06;18.37;;;5.63;;
5831;SDS011;50943;51.448;7.646;2023-05-27T01:02:36;9.17;;;3.83;;
5831;SDS011;50943;51.448;7.646;2023-05-27T01:05:05;13.07;;;5.20;;
5831;SDS011;50943;51.448;7.646;2023-05-27T01:07:34;23.97;;;5.20;;
5831;SDS011;50943;51.448;7.646;2023-05-27T01:10:07;19.23;;;5.10;;
5831;SDS011;50943;51.448;7.646;2023-05-27T01:12:39;16.93;;;5.10;;
5831;SDS011;50943;51.448;7.646;2023-05-27T01:15:10;30.00;;;5.30;;
5831;SDS011;50943;51.448;7.646;2023-05-27T01:17:37;18.93;;;5.10;;
5831;SDS011;50943;51.448;7.646;2023-05-27T01:20:07;22.70;;;5.23;;
5831;SDS011;50943;51.448;7.646;2023-05-27T01:22:36;24.40;;;5.10;;
5831;SDS011;50943;51.448;7.646;2023-05-27T01:25:06;18.87;;;5.47;;
5831;SDS011;50943;51.448;7.646;2023-05-27T01:27:33;19.53;;;6.23;;
5831;SDS011;50943;51.448;7.646;2023-05-27T01:30:00;13.43;;;5.10;;
5831;SDS011;50943;51.448;7.646;2023-05-27T01:32:27;18.23;;;5.83;;
5831;SDS011;50943;51.448;7.646;2023-05-27T01:34:57;24.60;;;5.33;;
5831;SDS011;50943;51.448;7.646;2023-05-27T01:37:27;26.80;;;6.40;;
5831;SDS011;50943;51.448;7.646;2023-05-27T01:39:57;13.97;;;5.33;;
5831;SDS011;50943;51.448;7.646;2023-05-27T01:42:24;20.63;;;5.43;;
5831;SDS011;50943;51.448;7.646;2023-05-27T01:44:51;19.40;;;6.27;;
5831;SDS011;50943;51.448;7.646;2023-05-27T01:47:18;20.50;;;6.70;;
5831;SDS011;50943;51.448;7.646;2023-05-27T01:49:45;16.03;;;5.27;;
5831;SDS011;50943;51.448;7.646;2023-05-27T01:52:11;25.47;;;5.33;;
5831;SDS011;50943;51.448;7.646;2023-05-27T01:54:38;20.53;;;6.20;;
5831;SDS011;50943;51.448;7.646;2023-05-27T01:57:06;18.83;;;5.57;;
5831;SDS011;50943;51.448;7.646;2023-05-27T01:59:32;21.50;;;5.60;;
5831;SDS011;50943;51.448;7.646;2023-05-27T02:01:59;34.90;;;5.73;;
5831;SDS011;50943;51.448;7.646;2023-05-27T02:04:25;25.43;;;6.00;;
5831;SDS011;50943;51.448;7.646;2023-05-27T02:06:52;26.83;;;6.10;;
5831;SDS011;50943;51.448;7.646;2023-05-27T02:09:18;22.33;;;6.47;;
5831;SDS011;50943;51.448;7.646;2023-05-27T02:11:45;24.07;;;6.17;;
5831;SDS011;50943;51.448;7.646;2023-05-27T02:14:15;23.47;;;5.60;;
5831;SDS011;50943;51.448;7.646;2023-05-27T02:16:45;19.80;;;5.40;;
5831;SDS011;50943;51.448;7.646;2023-05-27T02:19:31;27.40;;;5.80;;
5831;SDS011;50943;51.448;7.646;2023-05-27T02:21:57;21.30;;;5.70;;
5831;SDS011;50943;51.448;7.646;2023-05-27T02:24:24;17.50;;;6.17;;
5831;SDS011;50943;51.448;7.646;2023-05-27T02:26:52;19.17;;;6.30;;
5831;SDS011;50943;51.448;7.646;2023-05-27T02:29:19;22.13;;;5.90;;
5831;SDS011;50943;51.448;7.646;2023-05-27T02:31:46;21.73;;;6.50;;
5831;SDS011;50943;51.448;7.646;2023-05-27T02:34:13;25.13;;;5.50;;
5831;SDS011;50943;51.448;7.646;2023-05-27T02:36:41;24.50;;;6.10;;
5831;SDS011;50943;51.448;7.646;2023-05-27T02:39:08;21.80;;;5.40;;
5831;SDS011;50943;51.448;7.646;2023-05-27T02:41:35;21.77;;;5.60;;
5831;SDS011;50943;51.448;7.646;2023-05-27T02:44:02;22.67;;;5.70;;
5831;SDS011;50943;51.448;7.646;2023-05-27T02:46:28;19.73;;;5.60;;
5831;SDS011;50943;51.448;7.646;2023-05-27T02:48:55;16.97;;;5.80;;
5831;SDS011;50943;51.448;7.646;2023-05-27T02:51:21;18.47;;;5.47;;
5831;SDS011;50943;51.448;7.646;2023-05-27T02:53:50;20.33;;;5.57;;
5831;SDS011;50943;51.448;7.646;2023-05-27T02:56:17;23.97;;;5.47;;
5831;SDS011;50943;51.448;7.646;2023-05-27T02:58:43;17.00;;;6.07;;
5831;SDS011;50943;51.448;7.646;2023-05-27T03:01:10;25.50;;;6.50;;
5831;SDS011;50943;51.448;7.646;2023-05-27T03:03:37;18.17;;;5.53;;
5831;SDS011;50943;51.448;7.646;2023-05-27T03:06:03;15.47;;;6.17;;
5831;SDS011;50943;51.448;7.646;2023-05-27T03:08:30;22.87;;;8.07;;
5831;SDS011;50943;51.448;7.646;2023-05-27T03:10:58;21.43;;;6.23;;
5831;SDS011;50943;51.448;7.646;2023-05-27T03:13:24;23.47;;;5.90;;
5831;SDS011;50943;51.448;7.646;2023-05-27T03:15:51;16.93;;;6.03;;
5831;SDS011;50943;51.448;7.646;2023-05-27T03:18:19;32.70;;;6.57;;
5831;SDS011;50943;51.448;7.646;2023-05-27T03:20:46;21.93;;;7.23;;
5831;SDS011;50943;51.448;7.646;2023-05-27T03:23:13;18.70;;;6.50;;
5831;SDS011;50943;51.448;7.646;2023-05-27T03:25:39;18.83;;;6.07;;
5831;SDS011;50943;51.448;7.646;2023-05-27T03:28:07;24.33;;;7.47;;
5831;SDS011;50943;51.448;7.646;2023-05-27T03:30:34;24.83;;;8.70;;
5831;SDS011;50943;51.448;7.646;2023-05-27T03:33:01;29.27;;;7.60;;
5831;SDS011;50943;51.448;7.646;2023-05-27T03:35:28;22.07;;;7.80;;
5831;SDS011;50943;51.448;7.646;2023-05-27T03:37:54;21.80;;;7.10;;
5831;SDS011;50943;51.448;7.646;2023-05-27T03:40:21;21.93;;;6.60;;
5831;SDS011;50943;51.448;7.646;2023-05-27T03:42:47;24.53;;;7.20;;
5831;SDS011;50943;51.448;7.646;2023-05-27T03:45:15;18.40;;;6.13;;
5831;SDS011;50943;51.448;7.646;2023-05-27T03:47:42;16.97;;;6.50;;
5831;SDS011;50943;51.448;7.646;2023-05-27T03:50:09;22.93;;;5.83;;
5831;SDS011;50943;51.448;7.646;2023-05-27T03:52:36;28.93;;;7.47;;
5831;SDS011;50943;51.448;7.646;2023-05-27T03:55:03;11.90;;;5.90;;
5831;SDS011;50943;51.448;7.646;2023-05-27T03:57:30;16.00;;;6.17;;
5831;SDS011;50943;51.448;7.646;2023-05-27T03:59:56;17.80;;;5.97;;
5831;SDS011;50943;51.448;7.646;2023-05-27T04:02:24;19.10;;;5.90;;
5831;SDS011;50943;51.448;7.646;2023-05-27T04:04:51;26.67;;;5.80;;
5831;SDS011;50943;51.448;7.646;2023-05-27T04:07:18;20.83;;;6.93;;
5831;SDS011;50943;51.448;7.646;2023-05-27T04:09:45;24.13;;;6.83;;
5831;SDS011;50943;51.448;7.646;2023-05-27T04:12:11;21.33;;;5.33;;
5831;SDS011;50943;51.448;7.646;2023-05-27T04:14:38;14.70;;;5.70;;
5831;SDS011;50943;51.448;7.646;2023-05-27T04:17:05;23.60;;;6.17;;
5831;SDS011;50943;51.448;7.646;2023-05-27T04:19:33;28.33;;;7.30;;
5831;SDS011;50943;51.448;7.646;2023-05-27T04:22:00;20.47;;;6.43;;
5831;SDS011;50943;51.448;7.646;2023-05-27T04:24:26;22.43;;;7.07;;
5831;SDS011;50943;51.448;7.646;2023-05-27T04:26:53;33.70;;;7.67;;
5831;SDS011;50943;51.448;7.646;2023-05-27T04:29:20;24.93;;;6.60;;
5831;SDS011;50943;51.448;7.646;2023-05-27T04:31:47;19.30;;;6.87;;
5831;SDS011;50943;51.448;7.646;2023-05-27T04:34:14;24.77;;;7.17;;
5831;SDS011;50943;51.448;7.646;2023-05-27T04:36:42;22.60;;;7.10;;
5831;SDS011;50943;51.448;7.646;2023-05-27T04:39:09;25.23;;;7.40;;
5831;SDS011;50943;51.448;7.646;2023-05-27T04:41:36;20.90;;;7.20;;
5831;SDS011;50943;51.448;7.646;2023-05-27T04:44:04;22.03;;;8.00;;
5831;SDS011;50943;51.448;7.646;2023-05-27T04:46:31;20.73;;;8.60;;
5831;SDS011;50943;51.448;7.646;2023-05-27T04:48:58;14.10;;;6.47;;
5831;SDS011;50943;51.448;7.646;2023-05-27T04:51:25;25.10;;;8.20;;
5831;SDS011;50943;51.448;7.646;2023-05-27T04:53:53;24.73;;;6.90;;
5831;SDS011;50943;51.448;7.646;2023-05-27T04:56:21;30.43;;;8.23;;
5831;SDS011;50943;51.448;7.646;2023-05-27T04:58:47;25.23;;;7.27;;
5831;SDS011;50943;51.448;7.646;2023-05-27T05:01:14;18.47;;;7.47;;
5831;SDS011;50943;51.448;7.646;2023-05-27T05:03:45;21.63;;;7.67;;
5831;SDS011;50943;51.448;7.646;2023-05-27T05:06:18;20.90;;;6.50;;
5831;SDS011;50943;51.448;7.646;2023-05-27T05:08:46;28.87;;;7.63;;
5831;SDS011;50943;51.448;7.646;2023-05-27T05:11:14;18.83;;;7.03;;
5831;SDS011;50943;51.448;7.646;2023-05-27T05:13:41;25.23;;;7.10;;
5831;SDS011;50943;51.448;7.646;2023-05-27T05:16:08;24.60;;;8.60;;
5831;SDS011;50943;51.448;7.646;2023-05-27T05:18:34;19.43;;;6.53;;
5831;SDS011;50943;51.448;7.646;2023-05-27T05:21:01;20.03;;;6.40;;
5831;SDS011;50943;51.448;7.646;2023-05-27T05:23:27;18.73;;;7.70;;
5831;SDS011;50943;51.448;7.646;2023-05-27T05:25:54;22.43;;;6.50;;
5831;SDS011;50943;51.448;7.646;2023-05-27T05:28:25;19.27;;;6.80;;
5831;SDS011;50943;51.448;7.646;2023-05-27T05:30:53;16.50;;;6.27;;
5831;SDS011;50943;51.448;7.646;2023-05-27T05:33:20;18.87;;;6.30;;
5831;SDS011;50943;51.448;7.646;2023-05-27T05:35:46;25.57;;;6.20;;
5831;SDS011;50943;51.448;7.646;2023-05-27T05:38:13;19.10;;;6.27;;
5831;SDS011;50943;51.448;7.646;2023-05-27T05:40:40;20.40;;;5.97;;
5831;SDS011;50943;51.448;7.646;2023-05-27T05:43:06;15.97;;;5.63;;
5831;SDS011;50943;51.448;7.646;2023-05-27T05:45:34;22.37;;;6.20;;
5831;SDS011;50943;51.448;7.646;2023-05-27T05:48:01;21.63;;;5.37;;
5831;SDS011;50943;51.448;7.646;2023-05-27T05:50:27;21.43;;;5.90;;
5831;SDS011;50943;51.448;7.646;2023-05-27T05:52:54;17.20;;;5.00;;
5831;SDS011;50943;51.448;7.646;2023-05-27T05:55:21;18.07;;;6.00;;
5831;SDS011;50943;51.448;7.646;2023-05-27T05:57:47;20.30;;;5.57;;
5831;SDS011;50943;51.448;7.646;2023-05-27T06:00:15;20.63;;;5.30;;
5831;SDS011;50943;51.448;7.646;2023-05-27T06:02:44;19.33;;;5.73;;
5831;SDS011;50943;51.448;7.646;2023-05-27T06:05:11;23.67;;;6.90;;
5831;SDS011;50943;51.448;7.646;2023-05-27T06:07:37;19.83;;;6.40;;
5831;SDS011;50943;51.448;7.646;2023-05-27T06:10:04;22.67;;;6.70;;
5831;SDS011;50943;51.448;7.646;2023-05-27T06:12:31;17.57;;;7.37;;
5831;SDS011;50943;51.448;7.646;2023-05-27T06:14:58;20.87;;;7.53;;
5831;SDS011;50943;51.448;7.646;2023-05-27T06:17:24;20.80;;;6.77;;
5831;SDS011;50943;51.448;7.646;2023-05-27T06:19:52;19.03;;;6.00;;
5831;SDS011;50943;51.448;7.646;2023-05-27T06:22:19;18.47;;;6.50;;
5831;SDS011;50943;51.448;7.646;2023-05-27T06:24:45;24.13;;;7.50;;
5831;SDS011;50943;51.448;7.646;2023-05-27T06:27:12;17.97;;;6.73;;
5831;SDS011;50943;51.448;7.646;2023-05-27T06:29:39;16.33;;;6.00;;
5831;SDS011;50943;51.448;7.646;2023-05-27T06:32:07;19.53;;;5.83;;
5831;SDS011;50943;51.448;7.646;2023-05-27T06:34:34;16.40;;;5.40;;
5831;SDS011;50943;51.448;7.646;2023-05-27T06:37:02;19.90;;;5.70;;
5831;SDS011;50943;51.448;7.646;2023-05-27T06:39:28;14.50;;;5.93;;
5831;SDS011;50943;51.448;7.646;2023-05-27T06:41:55;13.27;;;5.60;;
5831;SDS011;50943;51.448;7.646;2023-05-27T06:44:21;21.73;;;4.97;;
5831;SDS011;50943;51.448;7.646;2023-05-27T06:46:48;23.53;;;7.63;;
5831;SDS011;50943;51.448;7.646;2023-05-27T06:49:15;14.60;;;4.97;;
5831;SDS011;50943;51.448;7.646;2023-05-27T06:51:41;13.10;;;5.30;;
5831;SDS011;50943;51.448;7.646;2023-05-27T06:54:09;17.00;;;5.27;;
5831;SDS011;50943;51.448;7.646;2023-05-27T06:56:37;18.23;;;5.37;;
5831;SDS011;50943;51.448;7.646;2023-05-27T06:59:04;17.93;;;7.53;;
5831;SDS011;50943;51.448;7.646;2023-05-27T07:01:30;13.83;;;4.80;;
5831;SDS011;50943;51.448;7.646;2023-05-27T07:03:57;14.80;;;5.60;;
5831;SDS011;50943;51.448;7.646;2023-05-27T07:06:26;18.77;;;4.97;;
5831;SDS011;50943;51.448;7.646;2023-05-27T07:08:52;19.83;;;6.03;;
5831;SDS011;50943;51.448;7.646;2023-05-27T07:11:21;14.33;;;4.87;;
5831;SDS011;50943;51.448;7.646;2023-05-27T07:13:48;14.50;;;5.07;;
5831;SDS011;50943;51.448;7.646;2023-05-27T07:16:16;14.37;;;5.77;;
5831;SDS011;50943;51.448;7.646;2023-05-27T07:18:43;14.20;;;5.30;;
5831;SDS011;50943;51.448;7.646;2023-05-27T07:21:09;17.73;;;5.53;;
5831;SDS011;50943;51.448;7.646;2023-05-27T07:23:36;12.30;;;5.40;;
5831;SDS011;50943;51.448;7.646;2023-05-27T07:26:02;14.63;;;5.07;;
5831;SDS011;50943;51.448;7.646;2023-05-27T07:28:30;16.17;;;6.00;;
5831;SDS011;50943;51.448;7.646;2023-05-27T07:30:57;14.17;;;5.13;;
5831;SDS011;50943;51.448;7.646;2023-05-27T07:33:24;15.47;;;5.67;;
5831;SDS011;50943;51.448;7.646;2023-05-27T07:35:50;17.70;;;5.93;;
5831;SDS011;50943;51.448;7.646;2023-05-27T07:38:17;18.53;;;5.53;;
5831;SDS011;50943;51.448;7.646;2023-05-27T07:40:44;17.50;;;7.13;;
5831;SDS011;50943;51.448;7.646;2023-05-27T07:43:13;15.80;;;5.53;;
5831;SDS011;50943;51.448;7.646;2023-05-27T07:45:41;18.50;;;6.20;;
5831;SDS011;50943;51.448;7.646;2023-05-27T07:48:07;14.37;;;4.93;;
5831;SDS011;50943;51.448;7.646;2023-05-27T07:50:34;15.00;;;5.00;;
5831;SDS011;50943;51.448;7.646;2023-05-27T07:53:01;11.23;;;5.10;;
5831;SDS011;50943;51.448;7.646;2023-05-27T07:55:27;13.70;;;4.80;;
5831;SDS011;50943;51.448;7.646;2023-05-27T07:57:54;17.80;;;5.30;;
5831;SDS011;50943;51.448;7.646;2023-05-27T08:00:21;13.40;;;4.80;;
5831;SDS011;50943;51.448;7.646;2023-05-27T08:02:49;12.83;;;5.13;;
5831;SDS011;50943;51.448;7.646;2023-05-27T08:05:15;18.70;;;5.53;;
5831;SDS011;50943;51.448;7.646;2023-05-27T08:07:42;15.77;;;5.47;;
5831;SDS011;50943;51.448;7.646;2023-05-27T08:10:09;12.30;;;4.40;;
5831;SDS011;50943;51.448;7.646;2023-05-27T08:12:35;13.23;;;5.77;;
5831;SDS011;50943;51.448;7.646;2023-05-27T08:15:02;21.10;;;5.83;;
5831;SDS011;50943;51.448;7.646;2023-05-27T08:17:29;11.00;;;4.70;;
5831;SDS011;50943;51.448;7.646;2023-05-27T08:19:58;15.40;;;5.37;;
5831;SDS011;50943;51.448;7.646;2023-05-27T08:22:24;10.63;;;4.90;;
5831;SDS011;50943;51.448;7.646;2023-05-27T08:24:51;12.73;;;4.50;;
5831;SDS011;50943;51.448;7.646;2023-05-27T08:27:19;14.80;;;5.00;;
5831;SDS011;50943;51.448;7.646;2023-05-27T08:29:46;15.90;;;5.33;;
5831;SDS011;50943;51.448;7.646;2023-05-27T08:32:13;12.73;;;5.03;;
5831;SDS011;50943;51.448;7.646;2023-05-27T08:34:40;14.10;;;4.90;;
5831;SDS011;50943;51.448;7.646;2023-05-27T08:37:08;18.37;;;5.47;;
5831;SDS011;50943;51.448;7.646;2023-05-27T08:39:35;14.93;;;5.07;;
5831;SDS011;50943;51.448;7.646;2023-05-27T08:42:02;16.33;;;5.60;;
5831;SDS011;50943;51.448;7.646;2023-05-27T08:44:29;15.70;;;5.17;;
5831;SDS011;50943;51.448;7.646;2023-05-27T08:46:55;13.77;;;5.33;;
5831;SDS011;50943;51.448;7.646;2023-05-27T08:49:22;22.47;;;6.40;;
5831;SDS011;50943;51.448;7.646;2023-05-27T08:51:49;12.40;;;5.30;;
5831;SDS011;50943;51.448;7.646;2023-05-27T08:54:18;18.30;;;5.60;;
5831;SDS011;50943;51.448;7.646;2023-05-27T08:56:45;17.30;;;5.33;;
5831;SDS011;50943;51.448;7.646;2023-05-27T08:59:11;12.87;;;5.50;;
5831;SDS011;50943;51.448;7.646;2023-05-27T09:01:38;13.93;;;5.67;;
5831;SDS011;50943;51.448;7.646;2023-05-27T09:04:07;13.63;;;4.80;;
5831;SDS011;50943;51.448;7.646;2023-05-27T09:06:34;13.03;;;5.20;;
5831;SDS011;50943;51.448;7.646;2023-05-27T09:09:01;13.10;;;4.80;;
5831;SDS011;50943;51.448;7.646;2023-05-27T09:11:28;13.70;;;6.10;;
5831;SDS011;50943;51.448;7.646;2023-05-27T09:14:00;11.47;;;4.77;;
5831;SDS011;50943;51.448;7.646;2023-05-27T09:16:27;12.03;;;5.40;;
5831;SDS011;50943;51.448;7.646;2023-05-27T09:18:53;13.60;;;5.40;;
5831;SDS011;50943;51.448;7.646;2023-05-27T09:21:20;13.57;;;5.33;;
5831;SDS011;50943;51.448;7.646;2023-05-27T09:23:47;13.60;;;5.10;;
5831;SDS011;50943;51.448;7.646;2023-05-27T09:26:13;15.40;;;5.87;;
5831;SDS011;50943;51.448;7.646;2023-05-27T09:28:41;12.80;;;5.50;;
5831;SDS011;50943;51.448;7.646;2023-05-27T09:31:08;17.77;;;5.60;;
5831;SDS011;50943;51.448;7.646;2023-05-27T09:33:36;15.60;;;4.80;;
5831;SDS011;50943;51.448;7.646;2023-05-27T09:36:03;12.57;;;5.37;;
5831;SDS011;50943;51.448;7.646;2023-05-27T09:38:30;17.40;;;5.43;;
5831;SDS011;50943;51.448;7.646;2023-05-27T09:41:01;13.23;;;5.83;;
5831;SDS011;50943;51.448;7.646;2023-05-27T09:43:28;12.30;;;4.80;;
5831;SDS011;50943;51.448;7.646;2023-05-27T09:45:57;15.27;;;4.87;;
5831;SDS011;50943;51.448;7.646;2023-05-27T09:48:29;12.97;;;5.30;;
5831;SDS011;50943;51.448;7.646;2023-05-27T09:50:57;18.10;;;5.03;;
5831;SDS011;50943;51.448;7.646;2023-05-27T09:53:25;15.97;;;6.07;;
5831;SDS011;50943;51.448;7.646;2023-05-27T09:55:52;20.17;;;6.07;;
5831;SDS011;50943;51.448;7.646;2023-05-27T09:58:20;12.93;;;4.97;;
5831;SDS011;50943;51.448;7.646;2023-05-27T10:00:46;13.53;;;4.87;;
5831;SDS011;50943;51.448;7.646;2023-05-27T10:03:15;12.13;;;4.43;;
5831;SDS011;50943;51.448;7.646;2023-05-27T10:05:42;13.77;;;5.07;;
5831;SDS011;50943;51.448;7.646;2023-05-27T10:08:10;13.43;;;4.70;;
5831;SDS011;50943;51.448;7.646;2023-05-27T10:10:40;14.17;;;5.43;;
5831;SDS011;50943;51.448;7.646;2023-05-27T10:13:07;11.23;;;5.70;;
5831;SDS011;50943;51.448;7.646;2023-05-27T10:15:34;14.63;;;4.93;;
5831;SDS011;50943;51.448;7.646;2023-05-27T10:18:01;12.60;;;5.20;;
5831;SDS011;50943;51.448;7.646;2023-05-27T10:20:33;12.53;;;4.73;;
5831;SDS011;50943;51.448;7.646;2023-05-27T10:23:08;14.97;;;5.37;;
5831;SDS011;50943;51.448;7.646;2023-05-27T10:25:37;8.97;;;4.53;;
5831;SDS011;50943;51.448;7.646;2023-05-27T10:28:03;12.67;;;5.23;;
5831;SDS011;50943;51.448;7.646;2023-05-27T10:30:30;10.77;;;4.90;;
5831;SDS011;50943;51.448;7.646;2023-05-27T10:33:08;14.13;;;4.90;;
5831;SDS011;50943;51.448;7.646;2023-05-27T10:35:40;16.50;;;5.63;;
5831;SDS011;50943;51.448;7.646;2023-05-27T10:38:17;12.60;;;5.33;;
5831;SDS011;50943;51.448;7.646;2023-05-27T10:40:44;12.93;;;5.13;;
5831;SDS011;50943;51.448;7.646;2023-05-27T10:43:15;12.67;;;4.77;;
5831;SDS011;50943;51.448;7.646;2023-05-27T10:45:42;19.53;;;5.20;;
5831;SDS011;50943;51.448;7.646;2023-05-27T10:48:14;15.00;;;5.40;;
5831;SDS011;50943;51.448;7.646;2023-05-27T10:50:48;12.90;;;5.10;;
5831;SDS011;50943;51.448;7.646;2023-05-27T10:53:16;14.77;;;4.97;;
5831;SDS011;50943;51.448;7.646;2023-05-27T10:55:43;14.13;;;4.80;;
5831;SDS011;50943;51.448;7.646;2023-05-27T10:58:11;11.40;;;4.60;;
5831;SDS011;50943;51.448;7.646;2023-05-27T11:00:37;15.03;;;4.93;;
5831;SDS011;50943;51.448;7.646;2023-05-27T11:03:05;12.90;;;4.90;;
5831;SDS011;50943;51.448;7.646;2023-05-27T11:05:43;15.80;;;5.00;;
5831;SDS011;50943;51.448;7.646;2023-05-27T11:08:12;11.20;;;4.37;;
5831;SDS011;50943;51.448;7.646;2023-05-27T11:10:39;12.50;;;4.47;;
5831;SDS011;50943;51.448;7.646;2023-05-27T11:13:06;14.93;;;4.50;;
5831;SDS011;50943;51.448;7.646;2023-05-27T11:15:33;9.00;;;4.00;;
5831;SDS011;50943;51.448;7.646;2023-05-27T11:18:00;10.73;;;4.50;;
5831;SDS011;50943;51.448;7.646;2023-05-27T11:20:33;12.20;;;4.67;;
5831;SDS011;50943;51.448;7.646;2023-05-27T11:23:02;20.03;;;4.77;;
5831;SDS011;50943;51.448;7.646;2023-05-27T11:25:29;10.97;;;4.40;;
5831;SDS011;50943;51.448;7.646;2023-05-27T11:27:55;15.10;;;4.77;;
5831;SDS011;50943;51.448;7.646;2023-05-27T11:30:23;12.97;;;4.30;;
5831;SDS011;50943;51.448;7.646;2023-05-27T11:32:52;13.47;;;4.70;;
5831;SDS011;50943;51.448;7.646;2023-05-27T11:35:19;12.93;;;4.43;;
5831;SDS011;50943;51.448;7.646;2023-05-27T11:37:46;10.00;;;4.97;;
5831;SDS011;50943;51.448;7.646;2023-05-27T11:40:14;13.67;;;5.10;;
5831;SDS011;50943;51.448;7.646;2023-05-27T11:42:44;12.43;;;4.00;;
5831;SDS011;50943;51.448;7.646;2023-05-27T11:45:15;9.03;;;4.00;;
5831;SDS011;50943;51.448;7.646;2023-05-27T11:47:43;13.20;;;4.40;;
5831;SDS011;50943;51.448;7.646;2023-05-27T11:50:10;10.67;;;4.33;;
5831;SDS011;50943;51.448;7.646;2023-05-27T11:52:46;9.43;;;3.87;;
5831;SDS011;50943;51.448;7.646;2023-05-27T11:55:17;19.17;;;4.87;;
5831;SDS011;50943;51.448;7.646;2023-05-27T11:57:44;12.70;;;4.10;;
5831;SDS011;50943;51.448;7.646;2023-05-27T12:00:11;12.40;;;4.60;;
5831;SDS011;50943;51.448;7.646;2023-05-27T12:02:38;19.30;;;5.03;;
5831;SDS011;50943;51.448;7.646;2023-05-27T12:05:07;11.10;;;4.00;;
5831;SDS011;50943;51.448;7.646;2023-05-27T12:07:34;13.37;;;4.40;;
5831;SDS011;50943;51.448;7.646;2023-05-27T12:10:05;10.13;;;3.93;;
5831;SDS011;50943;51.448;7.646;2023-05-27T12:12:35;15.50;;;4.13;;
5831;SDS011;50943;51.448;7.646;2023-05-27T12:15:03;9.90;;;4.10;;
5831;SDS011;50943;51.448;7.646;2023-05-27T12:17:30;12.23;;;4.50;;
5831;SDS011;50943;51.448;7.646;2023-05-27T12:19:56;14.30;;;4.53;;
5831;SDS011;50943;51.448;7.646;2023-05-27T12:22:23;12.03;;;4.30;;
5831;SDS011;50943;51.448;7.646;2023-05-27T12:24:50;19.40;;;4.50;;
5831;SDS011;50943;51.448;7.646;2023-05-27T12:27:17;9.00;;;3.90;;
5831;SDS011;50943;51.448;7.646;2023-05-27T12:29:45;11.53;;;4.20;;
5831;SDS011;50943;51.448;7.646;2023-05-27T12:32:14;9.87;;;4.23;;
5831;SDS011;50943;51.448;7.646;2023-05-27T12:34:41;13.37;;;4.70;;
5831;SDS011;50943;51.448;7.646;2023-05-27T12:37:07;11.70;;;4.53;;
5831;SDS011;50943;51.448;7.646;2023-05-27T12:39:34;15.83;;;4.20;;
5831;SDS011;50943;51.448;7.646;2023-05-27T12:42:00;11.33;;;3.80;;
5831;SDS011;50943;51.448;7.646;2023-05-27T12:44:30;10.80;;;4.10;;
5831;SDS011;50943;51.448;7.646;2023-05-27T12:46:58;12.03;;;3.90;;
5831;SDS011;50943;51.448;7.646;2023-05-27T12:49:25;11.27;;;4.40;;
5831;SDS011;50943;51.448;7.646;2023-05-27T12:51:51;11.70;;;4.63;;
5831;SDS011;50943;51.448;7.646;2023-05-27T12:54:18;10.80;;;3.80;;
5831;SDS011;50943;51.448;7.646;2023-05-27T12:56:44;10.83;;;3.80;;
5831;SDS011;50943;51.448;7.646;2023-05-27T12:59:11;11.23;;;3.83;;
5831;SDS011;50943;51.448;7.646;2023-05-27T13:01:38;11.53;;;4.20;;
5831;SDS011;50943;51.448;7.646;2023-05-27T13:04:06;11.97;;;4.93;;
5831;SDS011;50943;51.448;7.646;2023-05-27T13:06:33;9.60;;;4.00;;
5831;SDS011;50943;51.448;7.646;2023-05-27T13:09:00;10.07;;;4.40;;
5831;SDS011;50943;51.448;7.646;2023-05-27T13:11:27;12.30;;;4.07;;
5831;SDS011;50943;51.448;7.646;2023-05-27T13:13:54;18.33;;;4.27;;
5831;SDS011;50943;51.448;7.646;2023-05-27T13:16:20;12.90;;;4.30;;
5831;SDS011;50943;51.448;7.646;2023-05-27T13:18:47;12.27;;;3.90;;
5831;SDS011;50943;51.448;7.646;2023-05-27T13:21:15;10.87;;;4.40;;
5831;SDS011;50943;51.448;7.646;2023-05-27T13:23:41;18.30;;;4.20;;
5831;SDS011;50943;51.448;7.646;2023-05-27T13:26:09;14.50;;;4.40;;
5831;SDS011;50943;51.448;7.646;2023-05-27T13:28:35;14.70;;;4.40;;
5831;SDS011;50943;51.448;7.646;2023-05-27T13:31:02;11.83;;;4.07;;
5831;SDS011;50943;51.448;7.646;2023-05-27T13:33:29;9.77;;;3.93;;
5831;SDS011;50943;51.448;7.646;2023-05-27T13:35:56;11.37;;;4.30;;
5831;SDS011;50943;51.448;7.646;2023-05-27T13:38:24;7.00;;;3.63;;
5831;SDS011;50943;51.448;7.646;2023-05-27T13:40:53;11.90;;;4.20;;
5831;SDS011;50943;51.448;7.646;2023-05-27T13:43:20;9.20;;;3.70;;
5831;SDS011;50943;51.448;7.646;2023-05-27T13:45:48;8.03;;;3.50;;
5831;SDS011;50943;51.448;7.646;2023-05-27T13:48:14;10.40;;;4.30;;
5831;SDS011;50943;51.448;7.646;2023-05-27T13:50:41;9.63;;;3.80;;
5831;SDS011;50943;51.448;7.646;2023-05-27T13:53:08;11.43;;;4.70;;
5831;SDS011;50943;51.448;7.646;2023-05-27T13:55:36;8.57;;;3.80;;
5831;SDS011;50943;51.448;7.646;2023-05-27T13:58:02;7.63;;;3.60;;
5831;SDS011;50943;51.448;7.646;2023-05-27T14:00:29;9.47;;;3.80;;
5831;SDS011;50943;51.448;7.646;2023-05-27T14:02:56;9.40;;;4.03;;
5831;SDS011;50943;51.448;7.646;2023-05-27T14:05:24;8.20;;;4.00;;
5831;SDS011;50943;51.448;7.646;2023-05-27T14:07:51;10.10;;;4.13;;
5831;SDS011;50943;51.448;7.646;2023-05-27T14:10:18;9.50;;;4.17;;
5831;SDS011;50943;51.448;7.646;2023-05-27T14:12:46;9.20;;;4.00;;
5831;SDS011;50943;51.448;7.646;2023-05-27T14:15:12;15.53;;;4.50;;
5831;SDS011;50943;51.448;7.646;2023-05-27T14:17:39;11.23;;;4.43;;
5831;SDS011;50943;51.448;7.646;2023-05-27T14:20:06;8.90;;;4.20;;
5831;SDS011;50943;51.448;7.646;2023-05-27T14:22:35;9.40;;;3.50;;
5831;SDS011;50943;51.448;7.646;2023-05-27T14:25:02;8.73;;;4.00;;
5831;SDS011;50943;51.448;7.646;2023-05-27T14:27:30;7.43;;;3.70;;
5831;SDS011;50943;51.448;7.646;2023-05-27T14:29:58;11.50;;;4.10;;
5831;SDS011;50943;51.448;7.646;2023-05-27T14:32:24;10.47;;;4.00;;
5831;SDS011;50943;51.448;7.646;2023-05-27T14:34:51;12.47;;;3.90;;
5831;SDS011;50943;51.448;7.646;2023-05-27T14:37:17;12.00;;;3.97;;
5831;SDS011;50943;51.448;7.646;2023-05-27T14:39:44;8.37;;;3.70;;
5831;SDS011;50943;51.448;7.646;2023-05-27T14:42:11;9.23;;;3.63;;
5831;SDS011;50943;51.448;7.646;2023-05-27T14:44:37;12.43;;;4.83;;
5831;SDS011;50943;51.448;7.646;2023-05-27T14:47:05;10.50;;;4.07;;
5831;SDS011;50943;51.448;7.646;2023-05-27T14:49:32;12.67;;;4.57;;